Time;durP1;ratioP1;P1;durP2;ratioP2;P2;SDS_P1;SDS_P2;PMS_P1;PMS_P2;Temp;Humidity;BMP_temperature;BMP_pressure;BME280_temperature;BME280_humidity;BME280_pressure;Samples;Min_cycle;Max_cycle;Signal;HPM_P1;HPM_P2
2023/12/20 00:00:49;;;;;;;16.67;3.43;;;4.20;99.90;;;;;;4881207;29;20520;-92
2023/12/20 00:07:09;;;;;;;14.27;3.07;;;4.80;99.90;;;;;;5003263;23;20059;-92
2023/12/20 00:14:53;;;;;;;12.83;3.00;;;5.30;99.90;;;;;;5565898;23;20063;-92
2023/12/20 00:17:31;;;;;;;11.00;3.07;;;6.70;99.90;;;;;;4921351;29;20468;-92
2023/12/20 00:20:06;;;;;;;12.30;2.90;;;6.10;99.90;;;;;;4903125;29;20072;-92
2023/12/20 00:22:42;;;;;;;18.40;3.40;;;5.30;99.90;;;;;;5154558;23;20082;31
2023/12/20 00:25:34;;;;;;;16.50;3.60;;;5.30;99.90;;;;;;4882110;29;20063;-92
2023/12/20 00:28:00;;;;;;;16.17;3.37;;;4.90;99.90;;;;;;4900425;29;20051;-91
2023/12/20 00:30:51;;;;;;;;;;;;;;;;;;;;;
2023/12/20 00:34:23;;;;;;;15.30;2.90;;;5.80;99.90;;;;;;4909694;23;20052;-92
2023/12/20 00:38:04;;;;;;;14.20;2.73;;;5.30;99.90;;;;;;4903171;29;20412;-92
2023/12/20 00:41:21;;;;;;;12.83;2.73;;;4.90;99.90;;;;;;4902053;29;20067;-91
2023/12/20 00:44:38;;;;;;;12.77;2.40;;;4.30;99.90;;;;;;4910527;23;20200;-92
2023/12/20 00:48:02;;;;;;;16.90;3.20;;;5.80;99.90;;;;;;4907159;23;20056;-92
2023/12/20 00:50:34;;;;;;;14.95;2.60;;;5.90;99.90;;;;;;4885807;29;20053;-92
2023/12/20 00:53:08;;;;;;;18.13;3.10;;;4.40;99.90;;;;;;4884152;29;20493;-92
2023/12/20 00:55:45;;;;;;;;;;;4.50;99.90;;;;;;4883554;29;20404;-92
2023/12/20 01:09:04;;;;;;;17.00;2.93;;;5.00;99.90;;;;;;5130604;23;20504;-92
2023/12/20 01:11:33;;;;;;;14.43;2.83;;;5.40;99.90;;;;;;4973890;23;20045;-92
2023/12/20 01:14:02;;;;;;;15.57;3.00;;;5.80;99.90;;;;;;4883400;29;20055;-92
2023/12/20 01:16:52;;;;;;;16.57;3.10;;;5.00;99.90;;;;;;4882779;29;20492;-93
2023/12/20 01:19:33;;;;;;;17.07;2.70;;;5.00;99.90;;;;;;4883521;29;20051;-93
2023/12/20 01:22:31;;;;;;;16.50;3.30;;;4.90;99.90;;;;;;4862807;29;20056;-93
2023/12/20 01:25:50;;;;;;;12.13;2.73;;;4.00;99.90;;;;;;4929173;23;20063;-92
2023/12/20 01:28:41;;;;;;;12.30;2.90;;;4.60;99.90;;;;;;4893121;29;20105;-92
2023/12/20 01:31:19;;;;;;;19.47;3.03;;;5.00;99.90;;;;;;4904194;29;20414;-92
2023/12/20 01:38:06;;;;;;;14.83;2.80;;;4.50;99.90;;;;;;4901456;29;20082;-90
2023/12/20 01:40:48;;;;;;;14.30;3.10;;;6.00;99.90;;;;;;4884567;29;20044;-92
2023/12/20 01:53:11;;;;;;;15.67;2.50;;;5.80;99.90;;;;;;4918422;29;20050;-92
2023/12/20 01:58:06;;;;;;;20.17;3.40;;;4.60;99.90;;;;;;5338252;23;20091;-93
2023/12/20 02:04:14;;;;;;;18.33;3.27;;;3.90;99.90;;;;;;4927613;23;20143;-92
2023/12/20 02:07:02;;;;;;;14.80;3.20;;;5.50;99.90;;;;;;4901888;29;20124;-92
2023/12/20 02:09:42;;;;;;;15.20;3.20;;;4.90;99.90;;;;;;4911950;23;20109;-92
2023/12/20 02:12:16;;;;;;;20.10;3.23;;;5.50;99.90;;;;;;4882249;29;20053;-92
2023/12/20 02:15:00;;;;;;;15.60;3.30;;;4.50;99.90;;;;;;4883256;29;20427;-92
2023/12/20 02:18:16;;;;;;;14.57;3.20;;;5.30;99.90;;;;;;4901607;29;20044;-92
2023/12/20 02:20:45;;;;;;;20.87;3.30;;;5.20;99.90;;;;;;4871889;29;20057;-93
2023/12/20 02:23:13;;;;;;;18.73;3.20;;;4.70;99.90;;;;;;4898021;23;20060;-92
2023/12/20 02:25:57;;;;;;;15.47;2.90;;;4.40;99.90;;;;;;5244222;23;20079;-93
2023/12/20 02:29:16;;;;;;;19.35;3.45;;;3.80;99.90;;;;;;4882174;29;20089;-92
2023/12/20 02:35:32;;;;;;;13.67;3.40;;;4.40;99.90;;;;;;5118474;23;20056;-92
2023/12/20 02:46:04;;;;;;;26.03;3.50;;;4.70;99.90;;;;;;4908049;23;20107;-91
2023/12/20 02:52:36;;;;;;;17.90;3.27;;;5.40;99.90;;;;;;4924792;23;20052;-92
2023/12/20 03:04:47;;;;;;;19.30;3.10;;;4.80;99.90;;;;;;4900279;29;20129;-92
2023/12/20 03:07:38;;;;;;;15.40;3.07;;;5.10;99.90;;;;;;4922937;23;20508;-92
2023/12/20 03:10:25;;;;;;;14.40;3.03;;;5.20;99.90;;;;;;4920709;23;20061;-91
2023/12/20 03:13:14;;;;;;;16.40;3.17;;;5.40;99.90;;;;;;4926939;23;20063;-93
2023/12/20 03:30:25;;;;;;;15.63;3.17;;;5.40;99.90;;;;;;4955103;23;20516;-93
2023/12/20 03:35:56;;;;;;;21.00;4.30;;;5.50;99.90;;;;;;4905052;29;20051;-92
2023/12/20 03:38:33;;;;;;;15.90;3.10;;;5.50;99.90;;;;;;4954322;23;21232;-91
2023/12/20 03:41:01;;;;;;;18.47;3.63;;;5.50;99.90;;;;;;4942263;23;20057;-91
2023/12/20 03:43:27;;;;;;;13.00;2.90;;;5.70;99.90;;;;;;4920766;23;20041;-91
2023/12/20 03:46:13;;;;;;;16.63;2.93;;;7.30;99.90;;;;;;4887797;29;20052;-91
2023/12/20 03:48:39;;;;;;;19.70;3.77;;;5.30;99.90;;;;;;5069909;23;20060;-91
2023/12/20 03:54:13;;;;;;;22.80;3.70;;;5.70;99.90;;;;;;4915016;23;20552;-91
2023/12/20 03:56:48;;;;;;;21.37;3.67;;;6.40;99.90;;;;;;4886253;29;20045;-91
2023/12/20 03:59:20;;;;;;;25.27;4.53;;;6.40;99.90;;;;;;4886567;29;20092;-92
2023/12/20 04:01:56;;;;;;;21.47;4.10;;;5.30;99.90;;;;;;4885905;29;20123;-91
2023/12/20 04:07:30;;;;;;;20.97;3.87;;;6.40;99.90;;;;;;4886218;29;20052;-92
2023/12/20 04:10:49;;;;;;;19.20;3.63;;;6.60;99.90;;;;;;4912939;23;20056;-92
2023/12/20 04:13:24;;;;;;;21.57;4.23;;;5.40;99.90;;;;;;4885147;29;20529;-90
2023/12/20 04:16:05;;;;;;;16.60;3.83;;;5.30;99.90;;;;;;4885372;29;20052;-91
2023/12/20 04:18:37;;;;;;;21.73;4.10;;;5.30;99.90;;;;;;4885025;29;20135;-92
2023/12/20 04:21:18;;;;;;;24.60;4.37;;;5.40;99.90;;;;;;4900726;23;20124;-92
2023/12/20 04:23:47;;;;;;;22.60;4.03;;;7.00;99.90;;;;;;4866432;29;20160;-92
2023/12/20 04:27:10;;;;;;;21.87;4.53;;;5.00;99.90;;;;;;4882088;29;20045;-92
2023/12/20 04:29:45;;;;;;;33.60;4.87;;;5.00;99.90;;;;;;4831926;29;20194;-92
2023/12/20 04:32:11;;;;;;;26.97;5.10;;;3.90;99.90;;;;;;4907790;29;20092;-93
2023/12/20 04:34:42;;;;;;;21.50;3.60;;;5.00;99.90;;;;;;4926019;23;20036;-92
2023/12/20 04:38:14;;;;;;;23.33;4.27;;;6.70;99.90;;;;;;5139956;23;20066;-92
2023/12/20 04:40:44;;;;;;;16.87;4.37;;;4.90;99.90;;;;;;4895831;23;20093;-93
2023/12/20 04:43:19;;;;;;;19.53;4.20;;;5.40;99.90;;;;;;4904267;29;20071;-92
2023/12/20 04:45:45;;;;;;;20.30;4.37;;;5.50;99.90;;;;;;4903762;29;20036;-93
2023/12/20 04:58:24;;;;;;;24.40;6.67;;;4.70;99.90;;;;;;4904087;29;20052;-94
2023/12/20 05:00:50;;;;;;;35.53;13.87;;;4.90;99.90;;;;;;4902412;29;20040;-94
2023/12/20 05:03:24;;;;;;;35.43;17.03;;;6.00;99.90;;;;;;4906584;23;20049;-93
2023/12/20 05:11:19;;;;;;;40.67;18.37;;;5.70;99.90;;;;;;4953471;23;20088;-92
2023/12/20 05:14:07;;;;;;;35.93;14.03;;;5.50;99.90;;;;;;4909973;23;20174;-92
2023/12/20 05:19:45;;;;;;;45.07;21.77;;;7.30;99.90;;;;;;5107419;23;20147;-93
2023/12/20 05:23:23;;;;;;;;;;;;;;;;;;;;;
2023/12/20 05:30:13;;;;;;;29.07;6.17;;;6.00;99.90;;;;;;4880900;29;20150;-93
2023/12/20 05:32:51;;;;;;;31.63;15.63;;;5.90;99.90;;;;;;4906708;29;20048;-93
2023/12/20 05:37:54;;;;;;;31.67;14.20;;;6.00;99.90;;;;;;4925648;23;20056;-94
2023/12/20 05:43:59;;;;;;;41.63;23.40;;;7.20;99.90;;;;;;4920134;29;20090;-93
2023/12/20 05:49:15;;;;;;;18.97;4.73;;;6.00;99.90;;;;;;4935716;23;20400;-92
2023/12/20 05:52:01;;;;;;;18.43;7.23;;;6.00;99.90;;;;;;4911772;23;20052;-93
2023/12/20 05:55:36;;;;;;;23.50;5.70;;;6.30;99.90;;;;;;4912338;23;20075;-93
2023/12/20 06:01:08;;;;;;;25.80;6.13;;;6.10;99.90;;;;;;4970562;23;20681;-94
2023/12/20 06:04:08;;;;;;;24.50;4.87;;;7.20;99.90;;;;;;5012450;23;20188;-94
2023/12/20 06:07:06;;;;;;;14.60;4.50;;;6.10;99.90;;;;;;4979764;23;20054;-92
2023/12/20 06:17:16;;;;;;;19.07;3.73;;;6.10;99.90;;;;;;5427619;23;20048;-90
2023/12/20 06:19:54;;;;;;;17.77;5.27;;;7.40;99.90;;;;;;4901126;29;20060;-89
2023/12/20 06:43:22;;;;;;;22.80;3.90;;;6.40;99.90;;;;;;5331024;23;20481;-88
2023/12/20 06:45:48;;;;;;;20.47;4.03;;;7.40;99.90;;;;;;4895305;29;20500;-85
2023/12/20 06:48:16;;;;;;;22.70;4.53;;;8.10;99.90;;;;;;4896866;23;20055;-86
2023/12/20 06:50:42;;;;;;;17.93;3.87;;;7.60;99.90;;;;;;4910275;29;20048;-86
2023/12/20 06:53:08;;;;;;;24.03;4.10;;;7.00;99.90;;;;;;4907470;29;20062;-87
2023/12/20 06:55:43;;;;;;;20.17;3.50;;;7.70;99.90;;;;;;4906735;29;20047;-87
2023/12/20 06:58:24;;;;;;;17.57;3.37;;;7.10;99.90;;;;;;4937141;29;20437;-88
2023/12/20 07:01:10;;;;;;;18.80;3.50;;;5.60;99.90;;;;;;4918673;29;20060;-87
2023/12/20 07:03:57;;;;;;;20.10;3.30;;;5.90;99.90;;;;;;4919210;29;20047;-88
2023/12/20 07:06:35;;;;;;;20.87;3.43;;;5.90;99.90;;;;;;4918679;29;20059;-87
2023/12/20 07:09:01;;;;;;;20.43;3.60;;;6.50;99.90;;;;;;4918205;29;20047;-87
2023/12/20 07:12:23;;;;;;;23.07;3.67;;;6.20;99.90;;;;;;4918597;29;20389;-90
2023/12/20 07:15:29;;;;;;;18.57;4.03;;;7.50;99.90;;;;;;4843269;29;20517;-90
2023/12/20 07:18:13;;;;;;;17.03;3.57;;;6.90;99.90;;;;;;4842820;29;20530;-90
2023/12/20 07:21:07;;;;;;;20.20;3.53;;;6.70;99.90;;;;;;4842666;29;20401;-91
2023/12/20 07:23:48;;;;;;;19.80;3.70;;;5.70;99.90;;;;;;4838202;29;20426;-89
2023/12/20 07:26:23;;;;;;;17.63;4.27;;;8.10;99.90;;;;;;4843900;29;20045;-90
2023/12/20 07:32:19;;;;;;;15.97;3.57;;;6.60;99.90;;;;;;4862452;29;20097;-90
2023/12/20 07:35:10;;;;;;;16.97;3.70;;;5.50;99.90;;;;;;4867019;29;20070;-91
2023/12/20 07:40:17;;;;;;;19.43;3.80;;;6.60;99.90;;;;;;5602446;23;20056;-86
2023/12/20 07:43:07;;;;;;;22.10;3.67;;;6.60;99.90;;;;;;4912402;23;20596;-92
2023/12/20 08:08:00;;;;;;;17.20;4.40;;;6.80;99.90;;;;;;5827318;23;20050;-87
2023/12/20 08:14:34;;;;;;;15.30;3.17;;;6.40;99.90;;;;;;5113322;23;20540;-87
2023/12/20 08:17:37;;;;;;;16.70;3.00;;;8.30;99.90;;;;;;4898215;29;20070;-96
2023/12/20 08:41:20;;;;;;;18.77;3.40;;;6.40;99.90;;;;;;4880209;23;1162739;-91
2023/12/20 08:44:37;;;;;;;19.57;4.33;;;6.40;99.90;;;;;;4900791;29;20504;-91
2023/12/20 08:47:44;;;;;;;15.30;4.33;;;6.30;99.90;;;;;;5180292;23;20522;-90
2023/12/20 08:50:28;;;;;;;15.63;3.77;;;7.20;99.90;;;;;;4882602;29;20113;-91
2023/12/20 08:52:54;;;;;;;21.48;3.55;;;7.10;99.90;;;;;;4883076;29;20058;-90
2023/12/20 09:02:09;;;;;;;15.13;4.70;;;8.50;99.90;;;;;;4901566;29;20519;-86
2023/12/20 09:04:40;;;;;;;14.73;2.70;;;7.30;99.90;;;;;;4818042;29;20062;-86
2023/12/20 09:10:46;;;;;;;18.77;4.77;;;7.40;99.90;;;;;;4823730;29;20080;-86
2023/12/20 09:13:31;;;;;;;20.07;5.00;;;6.90;99.90;;;;;;5377162;23;20048;-86
2023/12/20 09:16:00;;;;;;;10.27;3.00;;;8.20;99.90;;;;;;4901857;29;20059;-85
2023/12/20 09:26:01;;;;;;;18.87;4.73;;;8.30;99.90;;;;;;4918294;29;20054;-86
2023/12/20 09:32:32;;;;;;;14.83;3.20;;;8.40;99.90;;;;;;5083502;23;20180;-85
2023/12/20 09:35:10;;;;;;;11.53;3.60;;;7.70;99.90;;;;;;4900424;29;20052;-86
2023/12/20 09:37:50;;;;;;;14.90;3.63;;;7.60;99.90;;;;;;4900335;29;20048;-85
2023/12/20 09:40:41;;;;;;;14.07;3.47;;;9.50;99.90;;;;;;4901322;29;20086;-83
2023/12/20 09:43:25;;;;;;;13.87;2.70;;;7.70;99.90;;;;;;4900743;29;20048;-86
2023/12/20 09:50:05;;;;;;;15.17;3.13;;;8.50;99.90;;;;;;4916925;29;20058;-86
2023/12/20 09:52:46;;;;;;;13.20;2.80;;;7.90;99.90;;;;;;4901459;29;20086;-86
2023/12/20 09:55:33;;;;;;;15.47;2.77;;;6.80;99.90;;;;;;4900084;29;20522;-86
2023/12/20 09:58:10;;;;;;;12.90;2.97;;;6.80;99.90;;;;;;4900890;29;20051;-86
2023/12/20 10:00:42;;;;;;;13.97;2.63;;;8.10;99.90;;;;;;4900779;29;20127;-86
2023/12/20 10:03:31;;;;;;;15.73;2.83;;;9.40;99.90;;;;;;4900013;29;20556;-86
2023/12/20 10:06:56;;;;;;;15.90;2.90;;;7.90;99.90;;;;;;4886804;29;20047;-86
2023/12/20 10:09:22;;;;;;;8.07;2.27;;;9.60;99.90;;;;;;4821811;29;20423;-85
2023/12/20 10:11:47;;;;;;;6.73;1.57;;;7.50;99.90;;;;;;4807445;29;20046;-84
2023/12/20 10:14:16;;;;;;;9.77;1.67;;;8.40;99.90;;;;;;4861737;29;20521;-85
2023/12/20 10:16:41;;;;;;;5.43;1.30;;;7.10;99.90;;;;;;4899628;29;20147;-85
2023/12/20 10:19:07;;;;;;;6.17;1.40;;;6.80;99.90;;;;;;4899798;29;20040;-85
2023/12/20 10:21:32;;;;;;;6.77;1.30;;;6.80;99.90;;;;;;4900020;29;20048;-85
2023/12/20 10:23:58;;;;;;;2.73;1.10;;;5.70;99.90;;;;;;4899255;29;20048;-85
2023/12/20 10:26:30;;;;;;;3.87;1.10;;;7.20;99.90;;;;;;4900246;29;20092;-86
2023/12/20 10:29:04;;;;;;;13.03;2.47;;;4.70;99.90;;;;;;4899957;29;20118;-85
2023/12/20 10:31:34;;;;;;;4.93;1.03;;;5.70;99.90;;;;;;4896818;29;20565;-85
2023/12/20 10:34:02;;;;;;;3.80;1.30;;;5.70;99.90;;;;;;4909275;29;20056;-84
2023/12/20 10:36:29;;;;;;;11.47;1.60;;;6.80;99.90;;;;;;4911174;29;20055;-86
2023/12/20 10:39:11;;;;;;;9.33;2.00;;;6.80;99.90;;;;;;4899191;29;20126;-84
2023/12/20 10:41:45;;;;;;;5.40;1.47;;;7.00;99.90;;;;;;4900250;29;20048;-83
2023/12/20 10:44:11;;;;;;;6.93;2.08;;;7.00;99.90;;;;;;4946510;29;20044;-83
2023/12/20 10:46:57;;;;;;;8.00;2.03;;;5.60;99.90;;;;;;4916202;29;20071;-84
2023/12/20 10:49:55;;;;;;;12.00;2.20;;;6.30;99.90;;;;;;4929537;29;20087;-85
2023/12/20 10:52:24;;;;;;;7.67;1.40;;;6.10;99.90;;;;;;4899414;29;20040;-85
2023/12/20 10:54:56;;;;;;;8.00;2.23;;;5.50;99.90;;;;;;4900002;29;20052;-85
2023/12/20 10:57:25;;;;;;;9.50;1.67;;;5.30;99.90;;;;;;4899988;29;20477;-85
2023/12/20 10:59:54;;;;;;;7.17;1.83;;;6.10;99.90;;;;;;4899431;29;20036;-85
2023/12/20 11:02:49;;;;;;;9.20;2.80;;;7.10;99.90;;;;;;4900770;29;20058;-85
2023/12/20 11:05:52;;;;;;;10.67;3.93;;;5.20;99.90;;;;;;4930285;29;20100;-85
2023/12/20 11:08:26;;;;;;;8.13;3.30;;;6.30;99.90;;;;;;4931344;29;20480;-85
2023/12/20 11:14:57;;;;;;;10.90;4.20;;;6.50;99.90;;;;;;4916677;29;20039;-85
2023/12/20 11:17:57;;;;;;;6.90;2.23;;;5.80;99.90;;;;;;4899398;29;20047;-85
2023/12/20 11:20:39;;;;;;;11.47;3.37;;;7.40;99.90;;;;;;4898813;29;20711;-87
2023/12/20 11:23:07;;;;;;;11.53;2.83;;;6.90;99.90;;;;;;4898172;29;20056;-84
2023/12/20 11:25:53;;;;;;;14.60;5.17;;;6.00;99.90;;;;;;4899725;29;20044;-85
2023/12/20 11:28:43;;;;;;;11.00;3.23;;;5.50;99.90;;;;;;4930141;29;20048;-86
2023/12/20 11:31:23;;;;;;;16.20;4.53;;;6.00;99.90;;;;;;4931214;29;20100;-84
2023/12/20 11:34:14;;;;;;;8.70;2.40;;;6.10;99.90;;;;;;4898540;29;20064;-86
2023/12/20 11:36:59;;;;;;;8.00;1.67;;;6.20;99.90;;;;;;4916415;29;20544;-86
2023/12/20 11:39:43;;;;;;;11.83;3.53;;;6.80;99.90;;;;;;4916384;29;20590;-86
2023/12/20 11:42:09;;;;;;;;;;;6.00;99.90;;;;;;4898821;29;20192;-85
2023/12/20 11:44:42;;;;;;;10.27;4.30;;;6.50;99.90;;;;;;4899071;29;20021;-88
2023/12/20 11:47:15;;;;;;;7.53;2.60;;;5.60;99.90;;;;;;4917261;29;20397;-87
2023/12/20 11:49:51;;;;;;;9.13;2.88;;;8.00;99.90;;;;;;4918225;29;20044;-87
2023/12/20 11:52:35;;;;;;;9.57;2.70;;;6.20;99.90;;;;;;4899594;29;20497;-86
2023/12/20 11:55:01;;;;;;;6.17;1.23;;;6.40;99.90;;;;;;4898187;29;20044;-86
2023/12/20 11:57:26;;;;;;;10.77;2.50;;;7.10;99.90;;;;;;4899073;29;20055;-86
2023/12/20 12:00:11;;;;;;;9.77;2.50;;;7.00;99.90;;;;;;4899794;29;20091;-86
2023/12/20 12:02:58;;;;;;;7.23;1.70;;;6.60;99.90;;;;;;4902259;29;20059;-87
2023/12/20 12:05:24;;;;;;;12.17;2.70;;;6.10;99.90;;;;;;4903014;29;20048;-86
2023/12/20 12:07:53;;;;;;;10.17;2.20;;;7.00;99.90;;;;;;4902739;29;20453;-86
2023/12/20 12:10:19;;;;;;;8.90;2.77;;;6.30;99.90;;;;;;4902367;29;20051;-87
2023/12/20 12:12:57;;;;;;;11.77;2.73;;;7.00;99.90;;;;;;4919590;29;20040;-86
2023/12/20 12:15:31;;;;;;;14.73;3.97;;;7.20;99.90;;;;;;4920154;29;20050;-87
2023/12/20 12:18:16;;;;;;;14.00;4.20;;;6.70;99.90;;;;;;4902771;29;20044;-87
2023/12/20 12:21:33;;;;;;;17.63;5.93;;;6.80;99.90;;;;;;4902619;29;20079;-86
2023/12/20 12:24:22;;;;;;;13.57;4.10;;;6.20;99.90;;;;;;4826345;29;20069;-86
2023/12/20 12:26:51;;;;;;;13.00;4.43;;;7.00;99.90;;;;;;4793876;29;20061;-86
2023/12/20 12:29:26;;;;;;;16.67;4.87;;;6.20;99.90;;;;;;4826578;29;20049;-86
2023/12/20 12:31:51;;;;;;;23.33;7.90;;;8.30;99.90;;;;;;4826642;29;20631;-87
2023/12/20 12:34:19;;;;;;;16.97;5.30;;;6.10;99.90;;;;;;4890871;29;20091;-86
2023/12/20 12:36:46;;;;;;;17.13;6.57;;;6.90;99.90;;;;;;4951626;23;20091;-86
2023/12/20 12:39:26;;;;;;;13.57;3.53;;;6.80;99.90;;;;;;4883472;29;20904;-86
2023/12/20 12:42:07;;;;;;;12.03;3.47;;;7.40;99.90;;;;;;4948180;23;20052;-86
2023/12/20 12:45:24;;;;;;;15.07;3.83;;;6.60;99.90;;;;;;4883083;29;20449;-86
2023/12/20 12:48:41;;;;;;;10.17;2.87;;;6.40;99.90;;;;;;4883010;29;20561;-87
2023/12/20 12:51:32;;;;;;;16.73;5.30;;;7.50;99.90;;;;;;4882334;29;20056;-87
2023/12/20 12:54:10;;;;;;;10.27;2.87;;;5.40;99.90;;;;;;4882546;29;20055;-87
2023/12/20 12:57:04;;;;;;;16.60;3.40;;;6.70;99.90;;;;;;4897621;29;20049;-86
2023/12/20 12:59:30;;;;;;;25.93;8.80;;;7.10;99.90;;;;;;4883177;29;20111;-86
2023/12/20 13:02:05;;;;;;;12.27;1.87;;;8.00;99.90;;;;;;4883042;29;20485;-87
2023/12/20 13:04:31;;;;;;;27.50;10.17;;;7.20;99.90;;;;;;4882738;29;20084;-87
2023/12/20 13:07:05;;;;;;;13.73;3.80;;;6.60;99.90;;;;;;4882032;29;20048;-87
2023/12/20 13:18:32;;;;;;;13.30;5.10;;;6.50;99.90;;;;;;4917070;29;20059;-88
2023/12/20 13:20:57;;;;;;;11.03;3.20;;;8.10;99.90;;;;;;4900700;29;20048;-88
2023/12/20 13:23:23;;;;;;;16.73;5.20;;;6.40;99.90;;;;;;4901020;29;20369;-87
2023/12/20 13:25:49;;;;;;;8.57;2.10;;;6.20;99.90;;;;;;4894364;29;20045;-87
2023/12/20 13:28:15;;;;;;;10.87;4.20;;;6.90;99.90;;;;;;4928891;23;20435;-88
2023/12/20 13:30:40;;;;;;;9.93;3.50;;;8.20;99.90;;;;;;4881892;29;20132;-89
2023/12/20 13:33:06;;;;;;;12.87;2.50;;;6.80;99.90;;;;;;4880938;29;20105;-86
2023/12/20 13:35:33;;;;;;;8.80;2.43;;;6.40;99.90;;;;;;4883054;29;20070;-92
2023/12/20 13:38:05;;;;;;;9.17;1.90;;;6.10;99.90;;;;;;4894913;29;20411;-87
2023/12/20 13:40:43;;;;;;;9.07;1.67;;;6.50;99.90;;;;;;4890886;29;20132;-89
2023/12/20 13:49:25;;;;;;;12.63;2.50;;;5.80;99.90;;;;;;5462363;23;20063;-90
2023/12/20 13:51:51;;;;;;;10.50;2.00;;;6.30;99.90;;;;;;4900536;29;20040;-89
2023/12/20 13:54:20;;;;;;;12.03;2.20;;;5.70;99.90;;;;;;4900093;29;20048;-89
2023/12/20 13:56:46;;;;;;;8.83;1.70;;;5.40;99.90;;;;;;4901036;29;20111;-90
2023/12/20 13:59:12;;;;;;;9.70;2.37;;;6.80;99.90;;;;;;4900984;29;20500;-91
2023/12/20 14:01:38;;;;;;;10.27;2.33;;;6.00;99.90;;;;;;4900364;29;20159;-90
2023/12/20 14:04:04;;;;;;;10.43;1.90;;;5.70;99.90;;;;;;4901451;29;20548;-89
2023/12/20 14:06:30;;;;;;;10.27;2.50;;;5.70;99.90;;;;;;4901371;29;20123;-90
2023/12/20 14:17:44;;;;;;;10.03;4.37;;;5.60;99.90;;;;;;5788028;23;20059;-87
2023/12/20 14:20:12;;;;;;;12.77;4.03;;;5.50;99.90;;;;;;4916040;29;20059;-88
2023/12/20 14:22:56;;;;;;;14.53;2.53;;;5.50;99.90;;;;;;4896320;29;20048;-89
2023/12/20 14:25:23;;;;;;;13.77;4.40;;;7.10;99.90;;;;;;4901319;29;20052;-88
2023/12/20 14:27:48;;;;;;;16.37;2.93;;;5.80;99.90;;;;;;4897899;29;20044;-89
2023/12/20 14:30:17;;;;;;;11.50;4.57;;;4.90;99.90;;;;;;4881402;29;20390;-89
2023/12/20 14:32:43;;;;;;;7.60;2.27;;;5.40;99.90;;;;;;4883749;29;20115;-88
2023/12/20 14:35:13;;;;;;;11.80;2.60;;;5.60;99.90;;;;;;4892845;29;20048;-90
2023/12/20 14:37:44;;;;;;;13.00;4.33;;;5.50;99.90;;;;;;4892428;29;20399;-89
2023/12/20 14:40:25;;;;;;;10.20;1.97;;;5.30;99.90;;;;;;4900247;29;20055;-86
2023/12/20 14:42:54;;;;;;;15.37;2.23;;;5.50;99.90;;;;;;4900396;29;20104;-87
2023/12/20 14:45:20;;;;;;;12.33;2.20;;;5.50;99.90;;;;;;4899958;29;20527;-87
2023/12/20 14:47:49;;;;;;;10.23;2.20;;;5.00;99.90;;;;;;4899547;29;20378;-86
2023/12/20 14:50:18;;;;;;;14.03;2.33;;;5.10;99.90;;;;;;4885139;29;20477;-90
2023/12/20 14:52:47;;;;;;;10.90;2.13;;;5.10;99.90;;;;;;4899555;29;20445;-88
2023/12/20 14:55:13;;;;;;;12.67;1.87;;;;;;;;;;4881747;29;20059;-88
2023/12/20 14:57:53;;;;;;;10.77;2.57;;;5.50;99.90;;;;;;4880317;29;20566;-87
2023/12/20 15:00:21;;;;;;;9.00;2.03;;;5.40;99.90;;;;;;4881556;29;20040;-87
2023/12/20 15:02:47;;;;;;;26.37;12.60;;;4.40;99.90;;;;;;4881173;29;20058;-85
2023/12/20 15:05:22;;;;;;;26.67;18.67;;;7.10;99.90;;;;;;4880505;29;20139;-86
2023/12/20 15:07:48;;;;;;;12.47;2.80;;;5.50;99.90;;;;;;4880589;29;20132;-87
2023/12/20 15:10:23;;;;;;;7.93;2.20;;;6.80;99.90;;;;;;4897585;29;20446;-86
2023/12/20 15:12:55;;;;;;;15.90;9.50;;;6.00;99.90;;;;;;4880230;29;20048;-86
2023/12/20 15:15:21;;;;;;;7.10;2.60;;;5.50;99.90;;;;;;4897998;29;20053;-87
2023/12/20 15:17:47;;;;;;;8.17;2.80;;;6.50;99.90;;;;;;4881254;29;20140;-85
2023/12/20 15:20:13;;;;;;;9.97;2.93;;;5.40;99.90;;;;;;4907429;29;20135;-85
2023/12/20 15:22:45;;;;;;;13.33;4.77;;;7.00;99.90;;;;;;4898841;29;20044;-85
2023/12/20 15:25:21;;;;;;;9.57;2.67;;;4.40;99.90;;;;;;4898549;29;20079;-84
2023/12/20 15:27:52;;;;;;;13.23;2.00;;;5.30;99.90;;;;;;4898286;29;20052;-85
2023/12/20 15:30:24;;;;;;;12.63;3.00;;;6.20;99.90;;;;;;4899062;29;20043;-85
2023/12/20 15:32:51;;;;;;;10.50;2.80;;;5.30;99.90;;;;;;4898325;29;20052;-85
2023/12/20 15:35:19;;;;;;;9.33;2.37;;;6.20;99.90;;;;;;4898552;29;20048;-85
2023/12/20 15:38:01;;;;;;;12.00;2.93;;;6.40;99.90;;;;;;4898533;29;20052;-84
2023/12/20 15:40:39;;;;;;;11.40;2.57;;;5.10;99.90;;;;;;4899115;29;20048;-85
2023/12/20 15:43:05;;;;;;;10.17;2.67;;;5.50;99.90;;;;;;4899248;29;20084;-84
2023/12/20 15:46:01;;;;;;;11.57;2.57;;;6.30;99.90;;;;;;4898904;29;20111;-84
2023/12/20 15:48:39;;;;;;;10.70;2.83;;;6.80;99.90;;;;;;4916020;29;20044;-85
2023/12/20 15:51:22;;;;;;;16.70;3.93;;;5.30;99.90;;;;;;4902378;29;20092;-85
2023/12/20 15:54:08;;;;;;;20.58;4.10;;;7.10;99.90;;;;;;4898397;29;20055;-85
2023/12/20 15:56:51;;;;;;;27.87;8.73;;;5.60;99.90;;;;;;4899836;29;20040;-88
2023/12/20 15:59:20;;;;;;;38.75;11.52;;;5.90;99.90;;;;;;4898541;29;20056;-87
2023/12/20 16:04:14;;;;;;;15.77;4.43;;;5.90;99.90;;;;;;4919415;23;20064;-87
2023/12/20 16:06:40;;;;;;;20.90;5.87;;;6.00;99.90;;;;;;4899036;29;20055;-87
2023/12/20 16:09:08;;;;;;;20.70;4.57;;;6.10;99.90;;;;;;4898958;29;20052;-86
2023/12/20 16:11:34;;;;;;;22.40;3.77;;;7.70;99.90;;;;;;4902357;29;20055;-86
2023/12/20 16:14:00;;;;;;;23.63;4.67;;;6.70;99.90;;;;;;4899732;29;20497;-91
2023/12/20 16:16:31;;;;;;;23.30;4.33;;;7.90;99.90;;;;;;4900690;29;20092;-86
2023/12/20 16:18:57;;;;;;;23.73;4.80;;;6.10;99.90;;;;;;4900330;29;20048;-87
2023/12/20 16:21:26;;;;;;;20.63;4.17;;;5.90;99.90;;;;;;4885714;29;20146;-87
2023/12/20 16:23:55;;;;;;;23.47;4.80;;;8.00;99.90;;;;;;4897155;29;20048;-86
2023/12/20 16:26:28;;;;;;;18.43;4.20;;;7.70;99.90;;;;;;4879723;29;20044;-86
2023/12/20 16:29:08;;;;;;;20.60;5.55;;;8.30;99.90;;;;;;4879104;29;20052;-87
2023/12/20 16:32:17;;;;;;;18.33;3.67;;;7.30;99.90;;;;;;4882803;29;20059;-89
2023/12/20 16:35:24;;;;;;;20.23;5.63;;;7.50;99.90;;;;;;4882901;29;20044;-90
2023/12/20 16:41:26;;;;;;;18.40;3.23;;;6.80;99.90;;;;;;4926831;29;20285;-93
2023/12/20 16:47:33;;;;;;;19.00;3.67;;;6.80;99.90;;;;;;4929021;23;20086;-93
2023/12/20 16:51:03;;;;;;;;;;;;;;;;;;;;;
2023/12/20 16:53:47;;;;;;;29.53;10.53;;;6.50;99.90;;;;;;4852928;29;20136;-93
2023/12/20 16:56:22;;;;;;;27.87;8.77;;;7.90;99.90;;;;;;4880819;29;20040;-92
2023/12/20 17:01:15;;;;;;;27.17;14.43;;;6.80;99.90;;;;;;4912716;23;20069;-94
2023/12/20 17:03:44;;;;;;;26.97;7.77;;;8.50;99.90;;;;;;4897804;29;20048;-92
2023/12/20 17:06:24;;;;;;;21.57;6.17;;;7.00;99.90;;;;;;4895502;29;20048;-95
2023/12/20 17:08:50;;;;;;;19.33;3.67;;;6.80;99.90;;;;;;4892206;29;20049;-94
2023/12/20 17:11:22;;;;;;;24.97;5.40;;;6.20;99.90;;;;;;4895673;29;20044;-93
2023/12/20 17:13:48;;;;;;;18.80;4.27;;;7.60;99.90;;;;;;4901054;29;20049;-91
2023/12/20 17:16:26;;;;;;;19.90;4.37;;;7.90;99.90;;;;;;4896880;29;20044;-91
2023/12/20 17:22:43;;;;;;;18.47;4.37;;;7.10;99.90;;;;;;4830865;29;20803;-89
2023/12/20 17:25:11;;;;;;;20.73;4.43;;;6.80;99.90;;;;;;4900308;23;20053;-91
2023/12/20 17:30:24;;;;;;;21.07;7.07;;;7.00;99.90;;;;;;4916077;23;20087;-91
2023/12/20 17:33:04;;;;;;;23.00;9.77;;;8.40;99.90;;;;;;4895049;29;20037;-90
2023/12/20 17:35:42;;;;;;;23.23;10.50;;;7.00;99.90;;;;;;4898423;29;20512;-90
2023/12/20 17:38:07;;;;;;;20.00;5.23;;;8.70;99.90;;;;;;4896583;29;20048;-90
2023/12/20 17:43:44;;;;;;;21.10;5.60;;;7.10;99.90;;;;;;5040163;23;20052;-90
2023/12/20 17:46:23;;;;;;;21.43;6.17;;;6.30;99.90;;;;;;4907322;23;20135;-91
2023/12/20 17:49:03;;;;;;;23.67;6.33;;;7.00;99.90;;;;;;4868817;29;20114;-91
2023/12/20 17:51:41;;;;;;;26.77;10.27;;;7.70;99.90;;;;;;4857665;29;20527;-92
2023/12/20 17:57:27;;;;;;;24.33;6.50;;;7.00;99.90;;;;;;4923456;23;20065;-91
2023/12/20 18:06:28;;;;;;;19.70;6.63;;;7.00;99.90;;;;;;4885894;23;20052;-91
2023/12/20 18:09:10;;;;;;;21.57;6.27;;;8.00;99.90;;;;;;4900085;29;20048;-91
2023/12/20 18:15:24;;;;;;;21.80;5.80;;;7.20;99.90;;;;;;4899859;29;20052;-91
2023/12/20 18:21:46;;;;;;;21.27;5.50;;;8.20;99.90;;;;;;4878020;29;20117;-90
2023/12/20 18:24:12;;;;;;;25.70;8.13;;;6.90;99.90;;;;;;4863409;29;20140;-91
2023/12/20 18:26:49;;;;;;;24.70;5.80;;;8.80;99.90;;;;;;4863915;29;20486;-90
2023/12/20 18:29:16;;;;;;;16.10;5.90;;;8.20;99.90;;;;;;4861978;29;20136;-89
2023/12/20 18:31:43;;;;;;;19.83;5.23;;;8.20;99.90;;;;;;4864217;29;20051;-88
2023/12/20 18:34:09;;;;;;;18.70;6.03;;;6.80;99.90;;;;;;4854553;29;20145;-89
2023/12/20 18:36:53;;;;;;;14.43;4.53;;;7.40;99.90;;;;;;4853565;29;20476;-88
2023/12/20 18:39:46;;;;;;;15.77;5.00;;;6.50;99.90;;;;;;4854309;29;20045;-88
2023/12/20 18:42:11;;;;;;;15.77;6.47;;;8.00;99.90;;;;;;4849776;29;20167;-89
2023/12/20 18:44:49;;;;;;;19.10;6.30;;;6.50;99.90;;;;;;4852415;29;20137;-88
2023/12/20 18:47:14;;;;;;;18.00;7.27;;;8.70;99.90;;;;;;4856149;29;20056;-88